sensor_id;sensor_type;location;lat;lon;timestamp;temperature;humidity
921;DHT22;447;51.332;6.778;2023-09-30T00:00:49;20.40;97.20
921;DHT22;447;51.332;6.778;2023-09-30T00:03:18;20.40;97.10
921;DHT22;447;51.332;6.778;2023-09-30T00:05:44;20.40;97.10
921;DHT22;447;51.332;6.778;2023-09-30T00:08:10;20.40;97.10
921;DHT22;447;51.332;6.778;2023-09-30T00:10:37;20.40;97.00
921;DHT22;447;51.332;6.778;2023-09-30T00:13:05;20.30;97.00
921;DHT22;447;51.332;6.778;2023-09-30T00:15:34;20.30;96.90
921;DHT22;447;51.332;6.778;2023-09-30T00:18:00;20.30;96.90
921;DHT22;447;51.332;6.778;2023-09-30T00:20:28;20.30;96.90
921;DHT22;447;51.332;6.778;2023-09-30T00:22:54;20.30;96.80
921;DHT22;447;51.332;6.778;2023-09-30T00:25:19;20.30;97.20
921;DHT22;447;51.332;6.778;2023-09-30T00:27:48;20.30;96.80
921;DHT22;447;51.332;6.778;2023-09-30T00:30:14;20.30;96.80
921;DHT22;447;51.332;6.778;2023-09-30T00:32:40;20.20;96.60
921;DHT22;447;51.332;6.778;2023-09-30T00:35:09;20.20;96.60
921;DHT22;447;51.332;6.778;2023-09-30T00:37:43;20.20;96.70
921;DHT22;447;51.332;6.778;2023-09-30T00:40:09;20.20;96.60
921;DHT22;447;51.332;6.778;2023-09-30T00:42:39;20.20;96.60
921;DHT22;447;51.332;6.778;2023-09-30T00:45:08;20.20;96.50
921;DHT22;447;51.332;6.778;2023-09-30T00:47:38;20.10;96.50
921;DHT22;447;51.332;6.778;2023-09-30T00:50:05;20.10;96.40
921;DHT22;447;51.332;6.778;2023-09-30T00:52:38;20.10;96.40
921;DHT22;447;51.332;6.778;2023-09-30T00:55:05;20.10;96.40
921;DHT22;447;51.332;6.778;2023-09-30T00:57:34;20.10;96.40
921;DHT22;447;51.332;6.778;2023-09-30T01:00:03;20.10;96.40
921;DHT22;447;51.332;6.778;2023-09-30T01:02:32;20.00;96.30
921;DHT22;447;51.332;6.778;2023-09-30T01:05:01;20.00;96.30
921;DHT22;447;51.332;6.778;2023-09-30T01:07:27;20.00;96.70
921;DHT22;447;51.332;6.778;2023-09-30T01:09:53;20.00;96.30
921;DHT22;447;51.332;6.778;2023-09-30T01:12:19;20.00;96.30
921;DHT22;447;51.332;6.778;2023-09-30T01:14:45;20.00;96.30
921;DHT22;447;51.332;6.778;2023-09-30T01:17:11;20.00;96.20
921;DHT22;447;51.332;6.778;2023-09-30T01:19:40;20.00;96.30
921;DHT22;447;51.332;6.778;2023-09-30T01:22:08;20.10;96.40
921;DHT22;447;51.332;6.778;2023-09-30T01:24:40;20.00;96.30
921;DHT22;447;51.332;6.778;2023-09-30T01:27:12;19.90;96.30
921;DHT22;447;51.332;6.778;2023-09-30T01:29:39;19.90;96.30
921;DHT22;447;51.332;6.778;2023-09-30T01:32:05;19.90;96.30
921;DHT22;447;51.332;6.778;2023-09-30T01:34:35;19.90;96.30
921;DHT22;447;51.332;6.778;2023-09-30T01:37:02;19.80;96.20
921;DHT22;447;51.332;6.778;2023-09-30T01:39:31;19.90;96.30
921;DHT22;447;51.332;6.778;2023-09-30T01:41:59;19.80;96.30
921;DHT22;447;51.332;6.778;2023-09-30T01:44:27;19.80;96.30
921;DHT22;447;51.332;6.778;2023-09-30T01:46:53;19.80;96.30
921;DHT22;447;51.332;6.778;2023-09-30T01:49:19;19.80;96.30
921;DHT22;447;51.332;6.778;2023-09-30T01:51:54;19.80;96.30
921;DHT22;447;51.332;6.778;2023-09-30T01:54:20;19.80;96.30
921;DHT22;447;51.332;6.778;2023-09-30T01:56:46;19.80;96.30
921;DHT22;447;51.332;6.778;2023-09-30T01:59:15;19.80;96.30
921;DHT22;447;51.332;6.778;2023-09-30T02:01:41;19.70;96.20
921;DHT22;447;51.332;6.778;2023-09-30T02:04:07;19.80;96.30
921;DHT22;447;51.332;6.778;2023-09-30T02:06:33;19.70;96.30
921;DHT22;447;51.332;6.778;2023-09-30T02:08:59;19.70;96.30
921;DHT22;447;51.332;6.778;2023-09-30T02:11:27;19.70;96.30
921;DHT22;447;51.332;6.778;2023-09-30T02:13:54;19.70;96.30
921;DHT22;447;51.332;6.778;2023-09-30T02:16:20;19.70;96.30
921;DHT22;447;51.332;6.778;2023-09-30T02:18:49;19.70;96.20
921;DHT22;447;51.332;6.778;2023-09-30T02:21:16;19.70;96.20
921;DHT22;447;51.332;6.778;2023-09-30T02:23:44;19.60;96.10
921;DHT22;447;51.332;6.778;2023-09-30T02:26:17;19.70;96.20
921;DHT22;447;51.332;6.778;2023-09-30T02:28:43;19.60;96.10
921;DHT22;447;51.332;6.778;2023-09-30T02:31:11;19.60;96.10
921;DHT22;447;51.332;6.778;2023-09-30T02:33:38;19.60;96.10
921;DHT22;447;51.332;6.778;2023-09-30T02:36:08;19.60;96.20
921;DHT22;447;51.332;6.778;2023-09-30T02:38:37;19.60;96.10
921;DHT22;447;51.332;6.778;2023-09-30T02:41:03;19.60;96.10
921;DHT22;447;51.332;6.778;2023-09-30T02:43:32;19.50;96.00
921;DHT22;447;51.332;6.778;2023-09-30T02:46:02;19.50;96.00
921;DHT22;447;51.332;6.778;2023-09-30T02:48:28;19.60;95.90
921;DHT22;447;51.332;6.778;2023-09-30T02:51:00;19.50;95.90
921;DHT22;447;51.332;6.778;2023-09-30T02:53:29;19.50;95.90
921;DHT22;447;51.332;6.778;2023-09-30T02:55:58;19.50;96.00
921;DHT22;447;51.332;6.778;2023-09-30T02:58:25;19.50;96.00
921;DHT22;447;51.332;6.778;2023-09-30T03:00:52;19.40;95.90
921;DHT22;447;51.332;6.778;2023-09-30T03:03:21;19.40;95.80
921;DHT22;447;51.332;6.778;2023-09-30T03:05:50;19.40;95.90
921;DHT22;447;51.332;6.778;2023-09-30T03:08:16;19.70;96.00
921;DHT22;447;51.332;6.778;2023-09-30T03:10:46;19.50;96.00
921;DHT22;447;51.332;6.778;2023-09-30T03:13:12;19.40;95.80
921;DHT22;447;51.332;6.778;2023-09-30T03:15:39;19.40;95.90
921;DHT22;447;51.332;6.778;2023-09-30T03:18:05;19.50;96.00
921;DHT22;447;51.332;6.778;2023-09-30T03:20:31;19.40;95.90
921;DHT22;447;51.332;6.778;2023-09-30T03:23:02;19.40;95.80
921;DHT22;447;51.332;6.778;2023-09-30T03:25:30;19.40;95.80
921;DHT22;447;51.332;6.778;2023-09-30T03:27:56;19.30;95.80
921;DHT22;447;51.332;6.778;2023-09-30T03:30:25;19.40;95.80
921;DHT22;447;51.332;6.778;2023-09-30T03:32:50;19.30;95.90
921;DHT22;447;51.332;6.778;2023-09-30T03:35:16;19.30;96.00
921;DHT22;447;51.332;6.778;2023-09-30T03:37:48;19.40;95.70
921;DHT22;447;51.332;6.778;2023-09-30T03:40:14;19.30;95.60
921;DHT22;447;51.332;6.778;2023-09-30T03:42:43;19.20;95.60
921;DHT22;447;51.332;6.778;2023-09-30T03:45:12;19.30;95.70
921;DHT22;447;51.332;6.778;2023-09-30T03:47:43;19.20;95.50
921;DHT22;447;51.332;6.778;2023-09-30T03:50:09;19.20;95.50
921;DHT22;447;51.332;6.778;2023-09-30T03:52:44;19.30;95.60
921;DHT22;447;51.332;6.778;2023-09-30T03:55:11;19.20;95.50
921;DHT22;447;51.332;6.778;2023-09-30T03:57:38;19.20;95.50
921;DHT22;447;51.332;6.778;2023-09-30T04:00:06;19.20;95.40
921;DHT22;447;51.332;6.778;2023-09-30T04:02:38;19.20;95.50
921;DHT22;447;51.332;6.778;2023-09-30T04:05:04;19.20;95.50
921;DHT22;447;51.332;6.778;2023-09-30T04:07:31;19.20;95.50
921;DHT22;447;51.332;6.778;2023-09-30T04:09:58;19.10;95.50
921;DHT22;447;51.332;6.778;2023-09-30T04:12:26;19.10;95.40
921;DHT22;447;51.332;6.778;2023-09-30T04:14:59;19.10;95.50
921;DHT22;447;51.332;6.778;2023-09-30T04:17:25;19.10;95.40
921;DHT22;447;51.332;6.778;2023-09-30T04:19:55;19.10;95.30
921;DHT22;447;51.332;6.778;2023-09-30T04:22:21;19.10;95.30
921;DHT22;447;51.332;6.778;2023-09-30T04:24:47;19.10;95.40
921;DHT22;447;51.332;6.778;2023-09-30T04:27:18;19.10;95.40
921;DHT22;447;51.332;6.778;2023-09-30T04:29:44;19.10;95.60
921;DHT22;447;51.332;6.778;2023-09-30T04:32:12;19.10;95.40
921;DHT22;447;51.332;6.778;2023-09-30T04:34:40;19.10;95.40
921;DHT22;447;51.332;6.778;2023-09-30T04:37:06;19.10;95.40
921;DHT22;447;51.332;6.778;2023-09-30T04:39:34;19.00;95.40
921;DHT22;447;51.332;6.778;2023-09-30T04:42:01;19.00;95.40
921;DHT22;447;51.332;6.778;2023-09-30T04:44:29;19.00;95.40
921;DHT22;447;51.332;6.778;2023-09-30T04:46:55;19.00;96.00
921;DHT22;447;51.332;6.778;2023-09-30T04:49:22;19.00;95.60
921;DHT22;447;51.332;6.778;2023-09-30T04:51:49;19.00;95.50
921;DHT22;447;51.332;6.778;2023-09-30T04:54:15;18.90;95.60
921;DHT22;447;51.332;6.778;2023-09-30T04:56:43;19.00;95.70
921;DHT22;447;51.332;6.778;2023-09-30T04:59:12;19.00;95.30
921;DHT22;447;51.332;6.778;2023-09-30T05:01:41;18.90;95.30
921;DHT22;447;51.332;6.778;2023-09-30T05:04:09;18.90;95.40
921;DHT22;447;51.332;6.778;2023-09-30T05:06:36;18.90;95.50
921;DHT22;447;51.332;6.778;2023-09-30T05:09:02;18.90;95.30
921;DHT22;447;51.332;6.778;2023-09-30T05:11:32;18.90;95.30
921;DHT22;447;51.332;6.778;2023-09-30T05:13:59;18.90;95.30
921;DHT22;447;51.332;6.778;2023-09-30T05:16:26;18.90;95.40
921;DHT22;447;51.332;6.778;2023-09-30T05:18:52;18.90;95.20
921;DHT22;447;51.332;6.778;2023-09-30T05:21:18;18.90;95.40
921;DHT22;447;51.332;6.778;2023-09-30T05:23:44;18.90;95.50
921;DHT22;447;51.332;6.778;2023-09-30T05:26:10;18.80;95.10
921;DHT22;447;51.332;6.778;2023-09-30T05:28:36;18.80;95.00
921;DHT22;447;51.332;6.778;2023-09-30T05:31:05;18.80;94.90
921;DHT22;447;51.332;6.778;2023-09-30T05:33:34;18.80;95.00
921;DHT22;447;51.332;6.778;2023-09-30T05:36:02;18.80;95.00
921;DHT22;447;51.332;6.778;2023-09-30T05:38:29;18.80;95.00
921;DHT22;447;51.332;6.778;2023-09-30T05:40:57;18.80;95.00
921;DHT22;447;51.332;6.778;2023-09-30T05:43:27;18.80;95.00
921;DHT22;447;51.332;6.778;2023-09-30T05:45:58;18.70;94.90
921;DHT22;447;51.332;6.778;2023-09-30T05:48:25;18.70;94.90
921;DHT22;447;51.332;6.778;2023-09-30T05:50:53;18.70;94.90
921;DHT22;447;51.332;6.778;2023-09-30T05:53:19;18.70;94.90
921;DHT22;447;51.332;6.778;2023-09-30T05:55:49;18.70;94.90
921;DHT22;447;51.332;6.778;2023-09-30T05:58:18;18.70;94.90
921;DHT22;447;51.332;6.778;2023-09-30T06:00:44;18.70;94.80
921;DHT22;447;51.332;6.778;2023-09-30T06:03:11;18.60;94.70
921;DHT22;447;51.332;6.778;2023-09-30T06:05:43;18.70;94.90
921;DHT22;447;51.332;6.778;2023-09-30T06:08:12;18.60;94.80
921;DHT22;447;51.332;6.778;2023-09-30T06:10:44;18.60;94.70
921;DHT22;447;51.332;6.778;2023-09-30T06:13:11;18.60;95.10
921;DHT22;447;51.332;6.778;2023-09-30T06:15:43;18.60;94.80
921;DHT22;447;51.332;6.778;2023-09-30T06:18:10;18.60;94.70
921;DHT22;447;51.332;6.778;2023-09-30T06:20:39;18.60;94.70
921;DHT22;447;51.332;6.778;2023-09-30T06:23:05;18.60;94.90
921;DHT22;447;51.332;6.778;2023-09-30T06:25:36;18.60;94.80
921;DHT22;447;51.332;6.778;2023-09-30T06:28:05;18.60;94.70
921;DHT22;447;51.332;6.778;2023-09-30T06:30:33;18.50;94.70
921;DHT22;447;51.332;6.778;2023-09-30T06:33:00;18.50;94.60
921;DHT22;447;51.332;6.778;2023-09-30T06:35:30;18.50;94.70
921;DHT22;447;51.332;6.778;2023-09-30T06:37:58;18.50;94.70
921;DHT22;447;51.332;6.778;2023-09-30T06:40:25;18.50;94.70
921;DHT22;447;51.332;6.778;2023-09-30T06:42:53;18.50;94.70
921;DHT22;447;51.332;6.778;2023-09-30T06:45:20;18.50;94.80
921;DHT22;447;51.332;6.778;2023-09-30T06:47:47;18.50;94.80
921;DHT22;447;51.332;6.778;2023-09-30T06:50:14;18.50;94.80
921;DHT22;447;51.332;6.778;2023-09-30T06:52:45;18.50;94.90
921;DHT22;447;51.332;6.778;2023-09-30T06:55:11;18.50;94.90
921;DHT22;447;51.332;6.778;2023-09-30T06:57:43;18.50;95.20
921;DHT22;447;51.332;6.778;2023-09-30T07:00:13;18.50;94.90
921;DHT22;447;51.332;6.778;2023-09-30T07:02:40;18.50;94.80
921;DHT22;447;51.332;6.778;2023-09-30T07:05:11;18.40;94.90
921;DHT22;447;51.332;6.778;2023-09-30T07:07:38;18.40;95.10
921;DHT22;447;51.332;6.778;2023-09-30T07:10:08;18.50;95.10
921;DHT22;447;51.332;6.778;2023-09-30T07:12:34;18.50;95.10
921;DHT22;447;51.332;6.778;2023-09-30T07:15:04;18.40;95.20
921;DHT22;447;51.332;6.778;2023-09-30T07:17:35;18.40;95.10
921;DHT22;447;51.332;6.778;2023-09-30T07:20:04;18.40;95.10
921;DHT22;447;51.332;6.778;2023-09-30T07:22:31;18.40;95.20
921;DHT22;447;51.332;6.778;2023-09-30T07:24:57;18.40;95.30
921;DHT22;447;51.332;6.778;2023-09-30T07:27:29;18.40;95.30
921;DHT22;447;51.332;6.778;2023-09-30T07:29:55;18.40;95.30
921;DHT22;447;51.332;6.778;2023-09-30T07:32:21;18.40;95.20
921;DHT22;447;51.332;6.778;2023-09-30T07:34:55;18.40;95.30
921;DHT22;447;51.332;6.778;2023-09-30T07:37:20;18.40;95.80
921;DHT22;447;51.332;6.778;2023-09-30T07:39:47;18.40;95.40
921;DHT22;447;51.332;6.778;2023-09-30T07:42:13;18.40;95.40
921;DHT22;447;51.332;6.778;2023-09-30T07:44:39;18.40;95.40
921;DHT22;447;51.332;6.778;2023-09-30T07:47:05;18.30;95.50
921;DHT22;447;51.332;6.778;2023-09-30T07:49:34;18.40;95.40
921;DHT22;447;51.332;6.778;2023-09-30T07:52:00;18.40;95.40
921;DHT22;447;51.332;6.778;2023-09-30T07:54:28;18.40;95.50
921;DHT22;447;51.332;6.778;2023-09-30T07:56:57;18.40;95.60
921;DHT22;447;51.332;6.778;2023-09-30T07:59:30;18.40;95.60
921;DHT22;447;51.332;6.778;2023-09-30T08:01:59;18.40;95.60
921;DHT22;447;51.332;6.778;2023-09-30T08:04:25;18.40;95.60
921;DHT22;447;51.332;6.778;2023-09-30T08:06:51;18.40;95.60
921;DHT22;447;51.332;6.778;2023-09-30T08:09:19;18.40;95.60
921;DHT22;447;51.332;6.778;2023-09-30T08:11:52;18.40;95.70
921;DHT22;447;51.332;6.778;2023-09-30T08:14:19;18.40;95.70
921;DHT22;447;51.332;6.778;2023-09-30T08:16:45;18.40;95.80
921;DHT22;447;51.332;6.778;2023-09-30T08:19:11;18.40;95.80
921;DHT22;447;51.332;6.778;2023-09-30T08:21:44;18.40;95.70
921;DHT22;447;51.332;6.778;2023-09-30T08:24:10;18.40;95.80
921;DHT22;447;51.332;6.778;2023-09-30T08:26:39;18.40;95.80
921;DHT22;447;51.332;6.778;2023-09-30T08:29:07;18.40;95.80
921;DHT22;447;51.332;6.778;2023-09-30T08:31:33;18.40;95.80
921;DHT22;447;51.332;6.778;2023-09-30T08:34:01;18.40;95.80
921;DHT22;447;51.332;6.778;2023-09-30T08:36:30;18.40;95.90
921;DHT22;447;51.332;6.778;2023-09-30T08:38:59;18.40;96.00
921;DHT22;447;51.332;6.778;2023-09-30T08:41:32;18.40;96.00
921;DHT22;447;51.332;6.778;2023-09-30T08:44:04;18.40;96.00
921;DHT22;447;51.332;6.778;2023-09-30T08:46:34;18.40;96.00
921;DHT22;447;51.332;6.778;2023-09-30T08:49:02;18.40;96.00
921;DHT22;447;51.332;6.778;2023-09-30T08:51:35;18.50;96.10
921;DHT22;447;51.332;6.778;2023-09-30T08:54:02;18.40;96.10
921;DHT22;447;51.332;6.778;2023-09-30T08:56:31;18.40;96.10
921;DHT22;447;51.332;6.778;2023-09-30T08:59:02;18.40;96.20
921;DHT22;447;51.332;6.778;2023-09-30T09:01:31;18.40;96.30
921;DHT22;447;51.332;6.778;2023-09-30T09:04:00;18.40;96.30
921;DHT22;447;51.332;6.778;2023-09-30T09:06:28;18.40;96.40
921;DHT22;447;51.332;6.778;2023-09-30T09:11:45;18.40;96.60
921;DHT22;447;51.332;6.778;2023-09-30T09:14:15;18.50;96.70
921;DHT22;447;51.332;6.778;2023-09-30T09:16:55;18.50;96.80
921;DHT22;447;51.332;6.778;2023-09-30T09:19:26;18.50;96.70
921;DHT22;447;51.332;6.778;2023-09-30T09:22:00;18.50;96.70
921;DHT22;447;51.332;6.778;2023-09-30T09:24:38;18.50;96.80
921;DHT22;447;51.332;6.778;2023-09-30T09:27:17;18.50;96.90
921;DHT22;447;51.332;6.778;2023-09-30T09:29:45;18.50;96.90
921;DHT22;447;51.332;6.778;2023-09-30T09:32:17;18.50;96.90
921;DHT22;447;51.332;6.778;2023-09-30T09:34:44;18.50;97.10
921;DHT22;447;51.332;6.778;2023-09-30T09:39:52;18.60;97.10
921;DHT22;447;51.332;6.778;2023-09-30T09:42:32;18.60;97.10
921;DHT22;447;51.332;6.778;2023-09-30T09:45:04;18.60;97.00
921;DHT22;447;51.332;6.778;2023-09-30T09:47:34;18.60;97.10
921;DHT22;447;51.332;6.778;2023-09-30T09:50:06;18.60;97.00
921;DHT22;447;51.332;6.778;2023-09-30T09:52:34;18.60;96.90
921;DHT22;447;51.332;6.778;2023-09-30T09:55:01;18.60;97.00
921;DHT22;447;51.332;6.778;2023-09-30T09:57:27;18.60;96.90
921;DHT22;447;51.332;6.778;2023-09-30T09:59:58;18.70;96.90
921;DHT22;447;51.332;6.778;2023-09-30T10:02:28;18.70;96.90
921;DHT22;447;51.332;6.778;2023-09-30T10:04:55;18.70;96.90
921;DHT22;447;51.332;6.778;2023-09-30T10:07:30;18.70;96.80
921;DHT22;447;51.332;6.778;2023-09-30T10:10:03;18.70;96.80
921;DHT22;447;51.332;6.778;2023-09-30T10:12:38;18.70;96.90
921;DHT22;447;51.332;6.778;2023-09-30T10:18:03;18.80;96.90
921;DHT22;447;51.332;6.778;2023-09-30T10:20:40;18.80;96.90
921;DHT22;447;51.332;6.778;2023-09-30T10:23:18;18.80;96.90
921;DHT22;447;51.332;6.778;2023-09-30T10:25:48;18.90;96.90
921;DHT22;447;51.332;6.778;2023-09-30T10:39:02;19.00;96.70
921;DHT22;447;51.332;6.778;2023-09-30T10:46:58;19.00;96.60
921;DHT22;447;51.332;6.778;2023-09-30T10:51:54;19.10;96.50
921;DHT22;447;51.332;6.778;2023-09-30T10:56:50;19.10;96.50
921;DHT22;447;51.332;6.778;2023-09-30T10:59:19;19.10;96.40
921;DHT22;447;51.332;6.778;2023-09-30T11:01:48;19.20;96.50
921;DHT22;447;51.332;6.778;2023-09-30T11:04:14;19.10;96.40
921;DHT22;447;51.332;6.778;2023-09-30T11:06:44;19.20;96.40
921;DHT22;447;51.332;6.778;2023-09-30T11:09:18;19.20;96.40
921;DHT22;447;51.332;6.778;2023-09-30T11:11:47;19.20;96.30
921;DHT22;447;51.332;6.778;2023-09-30T11:14:21;19.30;96.40
921;DHT22;447;51.332;6.778;2023-09-30T11:16:52;19.30;96.40
921;DHT22;447;51.332;6.778;2023-09-30T11:19:25;19.30;96.30
921;DHT22;447;51.332;6.778;2023-09-30T11:21:54;19.40;96.30
921;DHT22;447;51.332;6.778;2023-09-30T11:27:03;19.40;96.20
921;DHT22;447;51.332;6.778;2023-09-30T11:29:34;19.30;96.00
921;DHT22;447;51.332;6.778;2023-09-30T11:32:00;19.40;96.10
921;DHT22;447;51.332;6.778;2023-09-30T11:34:36;19.40;96.10
921;DHT22;447;51.332;6.778;2023-09-30T11:37:03;19.50;96.00
921;DHT22;447;51.332;6.778;2023-09-30T11:39:31;19.50;96.00
921;DHT22;447;51.332;6.778;2023-09-30T11:42:00;19.50;96.00
921;DHT22;447;51.332;6.778;2023-09-30T11:44:30;19.50;96.00
921;DHT22;447;51.332;6.778;2023-09-30T11:46:58;19.50;96.00
921;DHT22;447;51.332;6.778;2023-09-30T11:49:37;19.50;96.00
921;DHT22;447;51.332;6.778;2023-09-30T11:52:08;19.50;96.00
921;DHT22;447;51.332;6.778;2023-09-30T11:54:36;19.60;96.00
921;DHT22;447;51.332;6.778;2023-09-30T11:57:14;19.60;96.00
921;DHT22;447;51.332;6.778;2023-09-30T11:59:47;19.60;96.00
921;DHT22;447;51.332;6.778;2023-09-30T12:02:17;19.60;95.90
921;DHT22;447;51.332;6.778;2023-09-30T12:04:45;19.60;95.90
921;DHT22;447;51.332;6.778;2023-09-30T12:07:14;19.70;95.90
921;DHT22;447;51.332;6.778;2023-09-30T12:09:42;19.70;95.90
921;DHT22;447;51.332;6.778;2023-09-30T12:12:09;19.70;95.90
921;DHT22;447;51.332;6.778;2023-09-30T12:14:37;19.70;95.90
921;DHT22;447;51.332;6.778;2023-09-30T12:17:03;19.80;95.90
921;DHT22;447;51.332;6.778;2023-09-30T12:19:31;19.70;95.80
921;DHT22;447;51.332;6.778;2023-09-30T12:21:59;19.80;95.80
921;DHT22;447;51.332;6.778;2023-09-30T12:24:25;19.80;95.70
921;DHT22;447;51.332;6.778;2023-09-30T12:26:52;19.80;95.70
921;DHT22;447;51.332;6.778;2023-09-30T12:29:20;19.80;95.70
921;DHT22;447;51.332;6.778;2023-09-30T12:31:52;19.80;95.60
921;DHT22;447;51.332;6.778;2023-09-30T12:34:18;19.80;95.60
921;DHT22;447;51.332;6.778;2023-09-30T12:36:47;19.80;95.60
921;DHT22;447;51.332;6.778;2023-09-30T12:39:15;19.90;95.60
921;DHT22;447;51.332;6.778;2023-09-30T12:41:46;19.90;95.60
921;DHT22;447;51.332;6.778;2023-09-30T12:44:13;19.90;95.50
921;DHT22;447;51.332;6.778;2023-09-30T12:46:39;19.90;95.50
921;DHT22;447;51.332;6.778;2023-09-30T12:49:07;20.00;95.60
921;DHT22;447;51.332;6.778;2023-09-30T12:51:34;19.90;95.50
921;DHT22;447;51.332;6.778;2023-09-30T12:54:00;20.00;95.50
921;DHT22;447;51.332;6.778;2023-09-30T12:56:27;20.00;95.40
921;DHT22;447;51.332;6.778;2023-09-30T12:58:58;20.00;95.40
921;DHT22;447;51.332;6.778;2023-09-30T13:01:24;20.00;95.40
921;DHT22;447;51.332;6.778;2023-09-30T13:03:56;20.00;95.40
921;DHT22;447;51.332;6.778;2023-09-30T13:06:27;20.00;95.50
921;DHT22;447;51.332;6.778;2023-09-30T13:08:59;20.00;95.50
921;DHT22;447;51.332;6.778;2023-09-30T13:11:25;20.10;95.50
921;DHT22;447;51.332;6.778;2023-09-30T13:13:52;20.10;95.40
921;DHT22;447;51.332;6.778;2023-09-30T13:16:18;20.10;95.40
921;DHT22;447;51.332;6.778;2023-09-30T13:18:45;20.10;95.40
921;DHT22;447;51.332;6.778;2023-09-30T13:21:11;20.10;95.30
921;DHT22;447;51.332;6.778;2023-09-30T13:23:40;20.10;95.30
921;DHT22;447;51.332;6.778;2023-09-30T13:26:07;20.20;95.40
921;DHT22;447;51.332;6.778;2023-09-30T13:28:36;20.20;95.30
921;DHT22;447;51.332;6.778;2023-09-30T13:31:05;20.20;95.30
921;DHT22;447;51.332;6.778;2023-09-30T13:33:36;20.20;95.30
921;DHT22;447;51.332;6.778;2023-09-30T13:36:04;20.20;95.40
921;DHT22;447;51.332;6.778;2023-09-30T13:38:30;20.20;95.30
921;DHT22;447;51.332;6.778;2023-09-30T13:40:56;20.20;95.30
921;DHT22;447;51.332;6.778;2023-09-30T13:43:22;20.20;95.30
921;DHT22;447;51.332;6.778;2023-09-30T13:45:51;20.20;95.20
921;DHT22;447;51.332;6.778;2023-09-30T13:48:17;20.20;95.20
921;DHT22;447;51.332;6.778;2023-09-30T13:50:45;20.20;95.20
921;DHT22;447;51.332;6.778;2023-09-30T13:53:17;20.20;95.20
921;DHT22;447;51.332;6.778;2023-09-30T13:55:49;20.40;95.30
921;DHT22;447;51.332;6.778;2023-09-30T13:58:18;20.30;95.20
921;DHT22;447;51.332;6.778;2023-09-30T14:00:48;20.30;95.20
921;DHT22;447;51.332;6.778;2023-09-30T14:03:19;20.30;95.30
921;DHT22;447;51.332;6.778;2023-09-30T14:05:45;20.30;95.20
921;DHT22;447;51.332;6.778;2023-09-30T14:08:13;20.40;95.20
921;DHT22;447;51.332;6.778;2023-09-30T14:10:42;20.30;95.20
921;DHT22;447;51.332;6.778;2023-09-30T14:13:12;20.40;95.20
921;DHT22;447;51.332;6.778;2023-09-30T14:15:40;20.40;95.20
921;DHT22;447;51.332;6.778;2023-09-30T14:18:06;20.40;95.20
921;DHT22;447;51.332;6.778;2023-09-30T14:20:38;20.30;95.20
921;DHT22;447;51.332;6.778;2023-09-30T14:23:04;20.30;95.20
921;DHT22;447;51.332;6.778;2023-09-30T14:25:33;20.40;95.10
921;DHT22;447;51.332;6.778;2023-09-30T14:27:59;20.40;95.20
921;DHT22;447;51.332;6.778;2023-09-30T14:30:26;20.50;95.20
921;DHT22;447;51.332;6.778;2023-09-30T14:32:56;20.40;95.20
921;DHT22;447;51.332;6.778;2023-09-30T14:35:23;20.50;95.30
921;DHT22;447;51.332;6.778;2023-09-30T14:37:51;20.50;95.30
921;DHT22;447;51.332;6.778;2023-09-30T14:40:20;20.50;95.20
921;DHT22;447;51.332;6.778;2023-09-30T14:42:47;20.50;95.20
921;DHT22;447;51.332;6.778;2023-09-30T14:45:13;20.50;95.10
921;DHT22;447;51.332;6.778;2023-09-30T14:47:39;20.50;95.10
921;DHT22;447;51.332;6.778;2023-09-30T14:50:09;20.50;95.00
921;DHT22;447;51.332;6.778;2023-09-30T14:52:35;20.50;95.20
921;DHT22;447;51.332;6.778;2023-09-30T14:55:06;20.50;95.00
921;DHT22;447;51.332;6.778;2023-09-30T14:57:34;20.50;95.00
921;DHT22;447;51.332;6.778;2023-09-30T15:00:03;20.50;95.00
921;DHT22;447;51.332;6.778;2023-09-30T15:02:31;20.50;95.00
921;DHT22;447;51.332;6.778;2023-09-30T15:04:59;20.60;95.00
921;DHT22;447;51.332;6.778;2023-09-30T15:07:28;20.60;95.00
921;DHT22;447;51.332;6.778;2023-09-30T15:09:54;20.50;94.90
921;DHT22;447;51.332;6.778;2023-09-30T15:12:21;20.30;94.70
921;DHT22;447;51.332;6.778;2023-09-30T15:14:47;20.60;94.90
921;DHT22;447;51.332;6.778;2023-09-30T15:17:13;20.50;94.80
921;DHT22;447;51.332;6.778;2023-09-30T15:19:46;20.60;94.80
921;DHT22;447;51.332;6.778;2023-09-30T15:22:11;20.60;94.90
921;DHT22;447;51.332;6.778;2023-09-30T15:24:40;20.60;94.80
921;DHT22;447;51.332;6.778;2023-09-30T15:27:06;20.60;94.80
921;DHT22;447;51.332;6.778;2023-09-30T15:29:36;20.60;94.80
921;DHT22;447;51.332;6.778;2023-09-30T15:32:03;20.70;94.90
921;DHT22;447;51.332;6.778;2023-09-30T15:34:36;20.60;94.80
921;DHT22;447;51.332;6.778;2023-09-30T15:37:06;20.60;94.80
921;DHT22;447;51.332;6.778;2023-09-30T15:39:40;20.60;94.90
921;DHT22;447;51.332;6.778;2023-09-30T15:42:09;20.60;94.90
921;DHT22;447;51.332;6.778;2023-09-30T15:44:39;20.60;94.80
921;DHT22;447;51.332;6.778;2023-09-30T15:47:06;20.60;94.90
921;DHT22;447;51.332;6.778;2023-09-30T15:49:35;20.60;94.90
921;DHT22;447;51.332;6.778;2023-09-30T15:52:02;20.60;94.90
921;DHT22;447;51.332;6.778;2023-09-30T15:54:30;20.60;95.00
921;DHT22;447;51.332;6.778;2023-09-30T15:56:56;20.70;95.00
921;DHT22;447;51.332;6.778;2023-09-30T15:59:24;20.60;95.00
921;DHT22;447;51.332;6.778;2023-09-30T16:01:50;20.60;95.00
921;DHT22;447;51.332;6.778;2023-09-30T16:04:17;20.60;95.00
921;DHT22;447;51.332;6.778;2023-09-30T16:06:43;20.60;95.00
921;DHT22;447;51.332;6.778;2023-09-30T16:09:11;20.60;95.00
921;DHT22;447;51.332;6.778;2023-09-30T16:11:37;20.60;95.10
921;DHT22;447;51.332;6.778;2023-09-30T16:14:04;20.60;95.10
921;DHT22;447;51.332;6.778;2023-09-30T16:16:31;20.60;95.10
921;DHT22;447;51.332;6.778;2023-09-30T16:19:02;20.60;95.10
921;DHT22;447;51.332;6.778;2023-09-30T16:21:31;20.60;95.20
921;DHT22;447;51.332;6.778;2023-09-30T16:23:57;20.60;95.10
921;DHT22;447;51.332;6.778;2023-09-30T16:26:25;20.60;95.10
921;DHT22;447;51.332;6.778;2023-09-30T16:28:51;20.60;95.10
921;DHT22;447;51.332;6.778;2023-09-30T16:31:20;20.60;95.10
921;DHT22;447;51.332;6.778;2023-09-30T16:33:46;20.60;95.20
921;DHT22;447;51.332;6.778;2023-09-30T16:36:12;20.60;95.20
921;DHT22;447;51.332;6.778;2023-09-30T16:38:38;20.60;95.20
921;DHT22;447;51.332;6.778;2023-09-30T16:41:06;20.60;95.20
921;DHT22;447;51.332;6.778;2023-09-30T16:43:33;20.50;95.20
921;DHT22;447;51.332;6.778;2023-09-30T16:46:02;20.60;95.30
921;DHT22;447;51.332;6.778;2023-09-30T16:48:29;20.60;95.30
921;DHT22;447;51.332;6.778;2023-09-30T16:50:55;20.50;95.30
921;DHT22;447;51.332;6.778;2023-09-30T16:53:24;20.60;95.30
921;DHT22;447;51.332;6.778;2023-09-30T16:55:53;20.50;95.30
921;DHT22;447;51.332;6.778;2023-09-30T16:58:21;20.60;95.40
921;DHT22;447;51.332;6.778;2023-09-30T17:00:49;20.60;95.40
921;DHT22;447;51.332;6.778;2023-09-30T17:03:27;20.60;95.40
921;DHT22;447;51.332;6.778;2023-09-30T17:05:56;20.60;95.40
921;DHT22;447;51.332;6.778;2023-09-30T17:08:21;20.60;95.60
921;DHT22;447;51.332;6.778;2023-09-30T17:10:49;20.50;95.50
921;DHT22;447;51.332;6.778;2023-09-30T17:13:18;20.50;95.90